sensor_id;sensor_type;location;lat;lon;timestamp;P1;durP1;ratioP1;P2;durP2;ratioP2
64313;SDS011;50650;48.180;11.524;2023-06-10T00:00:08;5.07;;;3.63;;
64313;SDS011;50650;48.180;11.524;2023-06-10T00:02:38;3.95;;;3.45;;
64313;SDS011;50650;48.180;11.524;2023-06-10T00:05:05;7.97;;;4.00;;
64313;SDS011;50650;48.180;11.524;2023-06-10T00:07:32;5.82;;;3.85;;
64313;SDS011;50650;48.180;11.524;2023-06-10T00:10:03;4.63;;;3.63;;
64313;SDS011;50650;48.180;11.524;2023-06-10T00:12:31;6.03;;;3.92;;
64313;SDS011;50650;48.180;11.524;2023-06-10T00:15:02;6.70;;;4.22;;
64313;SDS011;50650;48.180;11.524;2023-06-10T00:17:29;4.97;;;4.10;;
64313;SDS011;50650;48.180;11.524;2023-06-10T00:19:57;4.80;;;3.90;;
64313;SDS011;50650;48.180;11.524;2023-06-10T00:22:23;5.63;;;4.45;;
64313;SDS011;50650;48.180;11.524;2023-06-10T00:24:54;6.40;;;4.18;;
64313;SDS011;50650;48.180;11.524;2023-06-10T00:27:20;6.72;;;4.18;;
64313;SDS011;50650;48.180;11.524;2023-06-10T00:29:47;5.90;;;4.78;;
64313;SDS011;50650;48.180;11.524;2023-06-10T00:32:13;6.22;;;3.88;;
64313;SDS011;50650;48.180;11.524;2023-06-10T00:34:40;5.95;;;4.35;;
64313;SDS011;50650;48.180;11.524;2023-06-10T00:37:07;5.78;;;4.15;;
64313;SDS011;50650;48.180;11.524;2023-06-10T00:39:34;5.30;;;4.53;;
64313;SDS011;50650;48.180;11.524;2023-06-10T00:42:00;6.30;;;4.80;;
64313;SDS011;50650;48.180;11.524;2023-06-10T00:44:27;5.95;;;4.30;;
64313;SDS011;50650;48.180;11.524;2023-06-10T00:46:53;5.38;;;4.32;;
64313;SDS011;50650;48.180;11.524;2023-06-10T00:49:20;5.25;;;4.32;;
64313;SDS011;50650;48.180;11.524;2023-06-10T00:51:47;6.05;;;4.05;;
64313;SDS011;50650;48.180;11.524;2023-06-10T00:54:15;6.60;;;4.50;;
64313;SDS011;50650;48.180;11.524;2023-06-10T00:56:41;7.32;;;4.07;;
64313;SDS011;50650;48.180;11.524;2023-06-10T00:59:08;4.35;;;3.80;;
64313;SDS011;50650;48.180;11.524;2023-06-10T01:01:34;4.72;;;4.25;;
64313;SDS011;50650;48.180;11.524;2023-06-10T01:04:02;6.97;;;4.47;;
64313;SDS011;50650;48.180;11.524;2023-06-10T01:06:30;7.20;;;4.60;;
64313;SDS011;50650;48.180;11.524;2023-06-10T01:09:04;6.13;;;4.75;;
64313;SDS011;50650;48.180;11.524;2023-06-10T01:11:36;5.00;;;4.22;;
64313;SDS011;50650;48.180;11.524;2023-06-10T01:14:10;7.78;;;4.43;;
64313;SDS011;50650;48.180;11.524;2023-06-10T01:16:37;7.20;;;4.07;;
64313;SDS011;50650;48.180;11.524;2023-06-10T01:19:05;6.55;;;4.35;;
64313;SDS011;50650;48.180;11.524;2023-06-10T01:21:34;10.27;;;4.22;;
64313;SDS011;50650;48.180;11.524;2023-06-10T01:24:00;5.25;;;4.40;;
64313;SDS011;50650;48.180;11.524;2023-06-10T01:26:28;9.30;;;4.40;;
64313;SDS011;50650;48.180;11.524;2023-06-10T01:28:57;7.32;;;4.32;;
64313;SDS011;50650;48.180;11.524;2023-06-10T01:31:28;6.43;;;4.60;;
64313;SDS011;50650;48.180;11.524;2023-06-10T01:33:59;4.75;;;4.20;;
64313;SDS011;50650;48.180;11.524;2023-06-10T01:36:26;5.18;;;4.22;;
64313;SDS011;50650;48.180;11.524;2023-06-10T01:38:54;5.10;;;4.15;;
64313;SDS011;50650;48.180;11.524;2023-06-10T01:41:21;5.40;;;4.13;;
64313;SDS011;50650;48.180;11.524;2023-06-10T01:43:48;5.88;;;4.38;;
64313;SDS011;50650;48.180;11.524;2023-06-10T01:46:15;5.75;;;4.38;;
64313;SDS011;50650;48.180;11.524;2023-06-10T01:48:44;6.40;;;4.93;;
64313;SDS011;50650;48.180;11.524;2023-06-10T01:51:11;5.68;;;4.45;;
64313;SDS011;50650;48.180;11.524;2023-06-10T01:53:37;7.47;;;4.47;;
64313;SDS011;50650;48.180;11.524;2023-06-10T01:56:05;5.90;;;4.60;;
64313;SDS011;50650;48.180;11.524;2023-06-10T01:58:31;7.07;;;4.82;;
64313;SDS011;50650;48.180;11.524;2023-06-10T02:00:58;5.10;;;4.60;;
64313;SDS011;50650;48.180;11.524;2023-06-10T02:03:24;5.63;;;4.68;;
64313;SDS011;50650;48.180;11.524;2023-06-10T02:05:51;6.07;;;4.90;;
64313;SDS011;50650;48.180;11.524;2023-06-10T02:08:17;6.43;;;5.00;;
64313;SDS011;50650;48.180;11.524;2023-06-10T02:10:43;6.97;;;5.22;;
64313;SDS011;50650;48.180;11.524;2023-06-10T02:13:11;6.55;;;5.20;;
64313;SDS011;50650;48.180;11.524;2023-06-10T02:15:38;6.05;;;5.18;;
64313;SDS011;50650;48.180;11.524;2023-06-10T02:18:04;5.57;;;4.65;;
64313;SDS011;50650;48.180;11.524;2023-06-10T02:20:31;7.63;;;5.22;;
64313;SDS011;50650;48.180;11.524;2023-06-10T02:22:58;5.50;;;4.53;;
64313;SDS011;50650;48.180;11.524;2023-06-10T02:25:25;5.43;;;4.40;;
64313;SDS011;50650;48.180;11.524;2023-06-10T02:27:51;6.93;;;4.53;;
64313;SDS011;50650;48.180;11.524;2023-06-10T02:30:19;6.88;;;4.60;;
64313;SDS011;50650;48.180;11.524;2023-06-10T02:32:45;5.35;;;4.38;;
64313;SDS011;50650;48.180;11.524;2023-06-10T02:35:12;4.97;;;4.43;;
64313;SDS011;50650;48.180;11.524;2023-06-10T02:37:39;6.32;;;4.60;;
64313;SDS011;50650;48.180;11.524;2023-06-10T02:40:06;5.32;;;4.55;;
64313;SDS011;50650;48.180;11.524;2023-06-10T02:42:33;8.50;;;5.18;;
64313;SDS011;50650;48.180;11.524;2023-06-10T02:45:00;6.88;;;5.05;;
64313;SDS011;50650;48.180;11.524;2023-06-10T02:47:28;6.10;;;4.97;;
64313;SDS011;50650;48.180;11.524;2023-06-10T02:49:54;5.30;;;4.80;;
64313;SDS011;50650;48.180;11.524;2023-06-10T02:52:21;5.57;;;4.97;;
64313;SDS011;50650;48.180;11.524;2023-06-10T02:54:47;5.80;;;4.90;;
64313;SDS011;50650;48.180;11.524;2023-06-10T02:57:14;6.10;;;4.68;;
64313;SDS011;50650;48.180;11.524;2023-06-10T02:59:40;6.10;;;4.88;;
64313;SDS011;50650;48.180;11.524;2023-06-10T03:02:07;5.75;;;4.95;;
64313;SDS011;50650;48.180;11.524;2023-06-10T03:04:35;5.95;;;4.80;;
64313;SDS011;50650;48.180;11.524;2023-06-10T03:07:02;7.20;;;5.30;;
64313;SDS011;50650;48.180;11.524;2023-06-10T03:09:32;8.10;;;5.28;;
64313;SDS011;50650;48.180;11.524;2023-06-10T03:11:58;6.00;;;5.05;;
64313;SDS011;50650;48.180;11.524;2023-06-10T03:14:27;7.05;;;4.85;;
64313;SDS011;50650;48.180;11.524;2023-06-10T03:16:54;5.10;;;4.60;;
64313;SDS011;50650;48.180;11.524;2023-06-10T03:19:20;6.07;;;4.80;;
64313;SDS011;50650;48.180;11.524;2023-06-10T03:22:07;6.75;;;5.38;;
64313;SDS011;50650;48.180;11.524;2023-06-10T03:24:35;6.38;;;5.30;;
64313;SDS011;50650;48.180;11.524;2023-06-10T03:27:05;9.57;;;5.40;;
64313;SDS011;50650;48.180;11.524;2023-06-10T03:29:32;5.68;;;4.97;;
64313;SDS011;50650;48.180;11.524;2023-06-10T03:31:59;7.07;;;5.25;;
64313;SDS011;50650;48.180;11.524;2023-06-10T03:34:25;7.07;;;5.53;;
64313;SDS011;50650;48.180;11.524;2023-06-10T03:36:53;7.43;;;5.80;;
64313;SDS011;50650;48.180;11.524;2023-06-10T03:39:19;9.80;;;6.78;;
64313;SDS011;50650;48.180;11.524;2023-06-10T03:41:46;8.05;;;6.30;;
64313;SDS011;50650;48.180;11.524;2023-06-10T03:44:13;7.32;;;5.70;;
64313;SDS011;50650;48.180;11.524;2023-06-10T03:46:39;6.68;;;5.28;;
64313;SDS011;50650;48.180;11.524;2023-06-10T03:49:06;8.68;;;6.20;;
64313;SDS011;50650;48.180;11.524;2023-06-10T03:51:32;7.78;;;6.13;;
64313;SDS011;50650;48.180;11.524;2023-06-10T03:54:02;9.23;;;5.75;;
64313;SDS011;50650;48.180;11.524;2023-06-10T03:56:28;7.70;;;6.40;;
64313;SDS011;50650;48.180;11.524;2023-06-10T03:58:55;8.45;;;6.10;;
64313;SDS011;50650;48.180;11.524;2023-06-10T04:01:21;8.43;;;5.90;;
64313;SDS011;50650;48.180;11.524;2023-06-10T04:03:48;7.35;;;5.95;;
64313;SDS011;50650;48.180;11.524;2023-06-10T04:06:16;8.95;;;6.15;;
64313;SDS011;50650;48.180;11.524;2023-06-10T04:08:43;8.63;;;6.32;;
64313;SDS011;50650;48.180;11.524;2023-06-10T04:11:11;7.95;;;6.30;;
64313;SDS011;50650;48.180;11.524;2023-06-10T04:13:37;10.73;;;6.40;;
64313;SDS011;50650;48.180;11.524;2023-06-10T04:16:04;9.27;;;6.70;;
64313;SDS011;50650;48.180;11.524;2023-06-10T04:18:31;8.00;;;6.30;;
64313;SDS011;50650;48.180;11.524;2023-06-10T04:20:57;9.02;;;6.40;;
64313;SDS011;50650;48.180;11.524;2023-06-10T04:23:24;8.35;;;6.25;;
64313;SDS011;50650;48.180;11.524;2023-06-10T04:25:51;10.07;;;5.97;;
64313;SDS011;50650;48.180;11.524;2023-06-10T04:28:19;6.35;;;5.57;;
64313;SDS011;50650;48.180;11.524;2023-06-10T04:30:45;7.78;;;6.35;;
64313;SDS011;50650;48.180;11.524;2023-06-10T04:33:11;9.90;;;6.55;;
64313;SDS011;50650;48.180;11.524;2023-06-10T04:35:38;7.45;;;6.13;;
64313;SDS011;50650;48.180;11.524;2023-06-10T04:38:04;8.38;;;5.78;;
64313;SDS011;50650;48.180;11.524;2023-06-10T04:40:31;8.38;;;6.47;;
64313;SDS011;50650;48.180;11.524;2023-06-10T04:42:57;7.30;;;6.00;;
64313;SDS011;50650;48.180;11.524;2023-06-10T04:45:25;9.98;;;6.32;;
64313;SDS011;50650;48.180;11.524;2023-06-10T04:47:51;6.97;;;6.28;;
64313;SDS011;50650;48.180;11.524;2023-06-10T04:50:20;9.25;;;6.57;;
64313;SDS011;50650;48.180;11.524;2023-06-10T04:52:47;10.20;;;6.30;;
64313;SDS011;50650;48.180;11.524;2023-06-10T04:55:13;6.95;;;6.25;;
64313;SDS011;50650;48.180;11.524;2023-06-10T04:57:40;7.10;;;5.90;;
64313;SDS011;50650;48.180;11.524;2023-06-10T05:00:06;8.07;;;6.20;;
64313;SDS011;50650;48.180;11.524;2023-06-10T05:02:35;7.20;;;6.32;;
64313;SDS011;50650;48.180;11.524;2023-06-10T05:05:01;7.40;;;5.75;;
64313;SDS011;50650;48.180;11.524;2023-06-10T05:07:28;7.35;;;6.05;;
64313;SDS011;50650;48.180;11.524;2023-06-10T05:09:54;9.52;;;6.00;;
64313;SDS011;50650;48.180;11.524;2023-06-10T05:12:20;7.10;;;5.95;;
64313;SDS011;50650;48.180;11.524;2023-06-10T05:14:47;8.93;;;5.75;;
64313;SDS011;50650;48.180;11.524;2023-06-10T05:17:13;7.10;;;5.97;;
64313;SDS011;50650;48.180;11.524;2023-06-10T05:19:41;11.75;;;5.57;;
64313;SDS011;50650;48.180;11.524;2023-06-10T05:22:08;6.93;;;5.43;;
64313;SDS011;50650;48.180;11.524;2023-06-10T05:24:34;7.22;;;5.22;;
64313;SDS011;50650;48.180;11.524;2023-06-10T05:27:01;8.23;;;5.78;;
64313;SDS011;50650;48.180;11.524;2023-06-10T05:29:27;7.13;;;5.70;;
64313;SDS011;50650;48.180;11.524;2023-06-10T05:31:54;8.38;;;6.25;;
64313;SDS011;50650;48.180;11.524;2023-06-10T05:34:22;6.63;;;5.90;;
64313;SDS011;50650;48.180;11.524;2023-06-10T05:36:50;11.63;;;5.82;;
64313;SDS011;50650;48.180;11.524;2023-06-10T05:39:16;7.40;;;5.55;;
64313;SDS011;50650;48.180;11.524;2023-06-10T05:41:43;6.32;;;5.50;;
64313;SDS011;50650;48.180;11.524;2023-06-10T05:44:09;8.35;;;6.32;;
64313;SDS011;50650;48.180;11.524;2023-06-10T05:46:36;8.25;;;6.00;;
64313;SDS011;50650;48.180;11.524;2023-06-10T05:49:02;7.05;;;5.85;;
64313;SDS011;50650;48.180;11.524;2023-06-10T05:51:29;6.97;;;5.55;;
64313;SDS011;50650;48.180;11.524;2023-06-10T05:53:56;7.57;;;5.78;;
64313;SDS011;50650;48.180;11.524;2023-06-10T05:56:23;11.05;;;6.03;;
64313;SDS011;50650;48.180;11.524;2023-06-10T05:58:50;6.97;;;5.45;;
64313;SDS011;50650;48.180;11.524;2023-06-10T06:01:17;8.43;;;5.35;;
64313;SDS011;50650;48.180;11.524;2023-06-10T06:03:43;7.03;;;5.40;;
64313;SDS011;50650;48.180;11.524;2023-06-10T06:06:10;6.13;;;5.20;;
64313;SDS011;50650;48.180;11.524;2023-06-10T06:08:36;7.95;;;5.60;;
64313;SDS011;50650;48.180;11.524;2023-06-10T06:11:04;8.20;;;5.72;;
64313;SDS011;50650;48.180;11.524;2023-06-10T06:13:30;6.65;;;5.20;;
64313;SDS011;50650;48.180;11.524;2023-06-10T06:15:57;6.63;;;5.25;;
64313;SDS011;50650;48.180;11.524;2023-06-10T06:18:23;5.50;;;4.97;;
64313;SDS011;50650;48.180;11.524;2023-06-10T06:20:50;6.70;;;5.05;;
64313;SDS011;50650;48.180;11.524;2023-06-10T06:23:16;6.88;;;5.00;;
64313;SDS011;50650;48.180;11.524;2023-06-10T06:25:42;9.35;;;5.70;;
64313;SDS011;50650;48.180;11.524;2023-06-10T06:28:10;8.77;;;6.13;;
64313;SDS011;50650;48.180;11.524;2023-06-10T06:30:37;8.57;;;7.05;;
64313;SDS011;50650;48.180;11.524;2023-06-10T06:33:03;7.63;;;6.35;;
64313;SDS011;50650;48.180;11.524;2023-06-10T06:35:30;8.32;;;6.72;;
64313;SDS011;50650;48.180;11.524;2023-06-10T06:37:56;10.13;;;6.95;;
64313;SDS011;50650;48.180;11.524;2023-06-10T06:40:23;9.65;;;6.90;;
64313;SDS011;50650;48.180;11.524;2023-06-10T06:42:50;5.90;;;5.25;;
64313;SDS011;50650;48.180;11.524;2023-06-10T06:45:18;8.07;;;4.97;;
64313;SDS011;50650;48.180;11.524;2023-06-10T06:47:44;6.78;;;5.60;;
64313;SDS011;50650;48.180;11.524;2023-06-10T06:50:10;7.07;;;6.18;;
64313;SDS011;50650;48.180;11.524;2023-06-10T06:52:37;7.22;;;5.93;;
64313;SDS011;50650;48.180;11.524;2023-06-10T06:55:04;5.93;;;4.80;;
64313;SDS011;50650;48.180;11.524;2023-06-10T06:57:31;7.43;;;4.82;;
64313;SDS011;50650;48.180;11.524;2023-06-10T06:59:58;7.03;;;5.40;;
64313;SDS011;50650;48.180;11.524;2023-06-10T07:02:25;6.72;;;4.95;;
64313;SDS011;50650;48.180;11.524;2023-06-10T07:04:52;7.80;;;5.15;;
64313;SDS011;50650;48.180;11.524;2023-06-10T07:07:20;9.10;;;5.28;;
64313;SDS011;50650;48.180;11.524;2023-06-10T07:09:47;7.20;;;4.93;;
64313;SDS011;50650;48.180;11.524;2023-06-10T07:12:13;6.50;;;5.00;;
64313;SDS011;50650;48.180;11.524;2023-06-10T07:14:40;6.95;;;4.88;;
64313;SDS011;50650;48.180;11.524;2023-06-10T07:17:06;9.45;;;5.05;;
64313;SDS011;50650;48.180;11.524;2023-06-10T07:19:34;7.40;;;5.05;;
64313;SDS011;50650;48.180;11.524;2023-06-10T07:22:01;8.00;;;4.68;;
64313;SDS011;50650;48.180;11.524;2023-06-10T07:24:28;6.28;;;4.78;;
64313;SDS011;50650;48.180;11.524;2023-06-10T07:26:54;8.32;;;4.35;;
64313;SDS011;50650;48.180;11.524;2023-06-10T07:29:21;6.60;;;4.10;;
64313;SDS011;50650;48.180;11.524;2023-06-10T07:31:47;5.43;;;3.83;;
64313;SDS011;50650;48.180;11.524;2023-06-10T07:34:14;5.03;;;3.63;;
64313;SDS011;50650;48.180;11.524;2023-06-10T07:36:41;4.78;;;3.55;;
64313;SDS011;50650;48.180;11.524;2023-06-10T07:39:08;3.58;;;3.15;;
64313;SDS011;50650;48.180;11.524;2023-06-10T07:41:35;3.85;;;3.13;;
64313;SDS011;50650;48.180;11.524;2023-06-10T07:44:01;3.70;;;2.67;;
64313;SDS011;50650;48.180;11.524;2023-06-10T07:46:28;3.47;;;2.63;;
64313;SDS011;50650;48.180;11.524;2023-06-10T07:48:55;4.45;;;3.38;;
64313;SDS011;50650;48.180;11.524;2023-06-10T07:51:21;3.22;;;2.88;;
64313;SDS011;50650;48.180;11.524;2023-06-10T07:53:49;3.53;;;2.72;;
64313;SDS011;50650;48.180;11.524;2023-06-10T07:56:16;2.88;;;2.53;;
64313;SDS011;50650;48.180;11.524;2023-06-10T07:58:42;3.58;;;2.58;;
64313;SDS011;50650;48.180;11.524;2023-06-10T08:01:08;3.35;;;2.42;;
64313;SDS011;50650;48.180;11.524;2023-06-10T08:03:35;3.45;;;2.70;;
64313;SDS011;50650;48.180;11.524;2023-06-10T08:06:01;3.00;;;2.50;;
64313;SDS011;50650;48.180;11.524;2023-06-10T08:08:28;3.10;;;2.35;;
64313;SDS011;50650;48.180;11.524;2023-06-10T08:10:56;3.10;;;2.72;;
64313;SDS011;50650;48.180;11.524;2023-06-10T08:13:22;3.50;;;2.70;;
64313;SDS011;50650;48.180;11.524;2023-06-10T08:15:49;3.42;;;2.50;;
64313;SDS011;50650;48.180;11.524;2023-06-10T08:18:18;4.22;;;3.40;;
64313;SDS011;50650;48.180;11.524;2023-06-10T08:20:45;3.92;;;2.65;;
64313;SDS011;50650;48.180;11.524;2023-06-10T08:23:11;3.67;;;2.78;;
64313;SDS011;50650;48.180;11.524;2023-06-10T08:25:38;4.40;;;3.20;;
64313;SDS011;50650;48.180;11.524;2023-06-10T08:28:05;3.72;;;2.70;;
64313;SDS011;50650;48.180;11.524;2023-06-10T08:30:32;3.25;;;2.80;;
64313;SDS011;50650;48.180;11.524;2023-06-10T08:32:59;4.40;;;3.30;;
64313;SDS011;50650;48.180;11.524;2023-06-10T08:35:26;3.45;;;2.88;;
64313;SDS011;50650;48.180;11.524;2023-06-10T08:37:52;4.07;;;3.25;;
64313;SDS011;50650;48.180;11.524;2023-06-10T08:40:18;2.88;;;2.58;;
64313;SDS011;50650;48.180;11.524;2023-06-10T08:42:46;4.22;;;3.55;;
64313;SDS011;50650;48.180;11.524;2023-06-10T08:45:17;3.90;;;2.95;;
64313;SDS011;50650;48.180;11.524;2023-06-10T08:47:45;4.70;;;2.92;;
64313;SDS011;50650;48.180;11.524;2023-06-10T08:50:12;3.40;;;3.10;;
64313;SDS011;50650;48.180;11.524;2023-06-10T08:52:40;3.47;;;3.17;;
64313;SDS011;50650;48.180;11.524;2023-06-10T08:55:10;5.50;;;3.15;;
64313;SDS011;50650;48.180;11.524;2023-06-10T08:57:37;4.00;;;3.60;;
64313;SDS011;50650;48.180;11.524;2023-06-10T09:00:04;3.95;;;3.58;;
64313;SDS011;50650;48.180;11.524;2023-06-10T09:02:33;4.25;;;3.45;;
64313;SDS011;50650;48.180;11.524;2023-06-10T09:05:03;7.75;;;3.58;;
64313;SDS011;50650;48.180;11.524;2023-06-10T09:07:30;3.38;;;3.08;;
64313;SDS011;50650;48.180;11.524;2023-06-10T09:09:59;4.47;;;3.42;;
64313;SDS011;50650;48.180;11.524;2023-06-10T09:12:28;3.65;;;3.22;;
64313;SDS011;50650;48.180;11.524;2023-06-10T09:14:54;4.32;;;3.88;;
64313;SDS011;50650;48.180;11.524;2023-06-10T09:17:21;6.07;;;3.45;;
64313;SDS011;50650;48.180;11.524;2023-06-10T09:19:49;3.55;;;3.25;;
64313;SDS011;50650;48.180;11.524;2023-06-10T09:22:18;3.47;;;2.90;;
64313;SDS011;50650;48.180;11.524;2023-06-10T09:24:46;4.00;;;3.13;;
64313;SDS011;50650;48.180;11.524;2023-06-10T09:27:12;5.55;;;3.03;;
64313;SDS011;50650;48.180;11.524;2023-06-10T09:29:45;3.30;;;3.00;;
64313;SDS011;50650;48.180;11.524;2023-06-10T09:32:12;5.45;;;3.25;;
64313;SDS011;50650;48.180;11.524;2023-06-10T09:34:39;3.42;;;2.80;;
64313;SDS011;50650;48.180;11.524;2023-06-10T09:37:07;3.92;;;3.15;;
64313;SDS011;50650;48.180;11.524;2023-06-10T09:39:37;3.60;;;3.13;;
64313;SDS011;50650;48.180;11.524;2023-06-10T09:42:04;3.38;;;2.90;;
64313;SDS011;50650;48.180;11.524;2023-06-10T09:44:41;3.65;;;3.25;;
64313;SDS011;50650;48.180;11.524;2023-06-10T09:47:08;3.15;;;2.80;;
64313;SDS011;50650;48.180;11.524;2023-06-10T09:49:34;3.97;;;3.25;;
64313;SDS011;50650;48.180;11.524;2023-06-10T09:52:05;5.32;;;3.42;;
64313;SDS011;50650;48.180;11.524;2023-06-10T09:54:33;4.85;;;3.10;;
64313;SDS011;50650;48.180;11.524;2023-06-10T09:57:00;9.00;;;3.70;;
64313;SDS011;50650;48.180;11.524;2023-06-10T09:59:33;3.88;;;3.40;;
64313;SDS011;50650;48.180;11.524;2023-06-10T10:02:00;3.47;;;3.17;;
64313;SDS011;50650;48.180;11.524;2023-06-10T10:04:27;3.55;;;3.00;;
64313;SDS011;50650;48.180;11.524;2023-06-10T10:06:54;3.70;;;2.90;;
64313;SDS011;50650;48.180;11.524;2023-06-10T10:09:20;2.95;;;2.28;;
64313;SDS011;50650;48.180;11.524;2023-06-10T10:11:48;4.10;;;2.65;;
64313;SDS011;50650;48.180;11.524;2023-06-10T10:14:15;5.47;;;2.85;;
64313;SDS011;50650;48.180;11.524;2023-06-10T10:16:42;3.35;;;2.50;;
64313;SDS011;50650;48.180;11.524;2023-06-10T10:19:10;2.75;;;2.45;;
64313;SDS011;50650;48.180;11.524;2023-06-10T10:21:39;5.22;;;3.00;;
64313;SDS011;50650;48.180;11.524;2023-06-10T10:24:12;3.60;;;2.90;;
64313;SDS011;50650;48.180;11.524;2023-06-10T10:26:41;9.02;;;3.20;;
64313;SDS011;50650;48.180;11.524;2023-06-10T10:29:14;3.72;;;2.90;;
64313;SDS011;50650;48.180;11.524;2023-06-10T10:31:43;4.53;;;3.23;;
64313;SDS011;50650;48.180;11.524;2023-06-10T10:34:12;3.10;;;2.78;;
64313;SDS011;50650;48.180;11.524;2023-06-10T10:36:41;3.10;;;2.72;;
64313;SDS011;50650;48.180;11.524;2023-06-10T10:39:08;2.95;;;2.60;;
64313;SDS011;50650;48.180;11.524;2023-06-10T10:41:35;2.67;;;2.42;;
64313;SDS011;50650;48.180;11.524;2023-06-10T10:44:03;2.88;;;2.40;;
64313;SDS011;50650;48.180;11.524;2023-06-10T10:46:37;2.95;;;2.53;;
64313;SDS011;50650;48.180;11.524;2023-06-10T10:49:08;6.40;;;3.15;;
64313;SDS011;50650;48.180;11.524;2023-06-10T10:51:35;3.53;;;2.70;;
64313;SDS011;50650;48.180;11.524;2023-06-10T10:54:11;3.75;;;2.75;;
64313;SDS011;50650;48.180;11.524;2023-06-10T10:56:38;3.72;;;2.92;;
64313;SDS011;50650;48.180;11.524;2023-06-10T10:59:05;2.85;;;2.58;;
64313;SDS011;50650;48.180;11.524;2023-06-10T11:01:43;3.55;;;3.10;;
64313;SDS011;50650;48.180;11.524;2023-06-10T11:04:11;3.25;;;2.85;;
64313;SDS011;50650;48.180;11.524;2023-06-10T11:06:37;5.93;;;3.10;;
64313;SDS011;50650;48.180;11.524;2023-06-10T11:11:51;4.15;;;2.53;;
64313;SDS011;50650;48.180;11.524;2023-06-10T11:14:26;3.10;;;2.60;;
64313;SDS011;50650;48.180;11.524;2023-06-10T11:16:54;3.97;;;2.72;;
64313;SDS011;50650;48.180;11.524;2023-06-10T11:19:32;3.28;;;2.70;;
64313;SDS011;50650;48.180;11.524;2023-06-10T11:21:59;4.80;;;2.40;;
64313;SDS011;50650;48.180;11.524;2023-06-10T11:24:28;3.38;;;2.65;;
64313;SDS011;50650;48.180;11.524;2023-06-10T11:26:55;3.10;;;2.80;;
64313;SDS011;50650;48.180;11.524;2023-06-10T11:29:47;3.20;;;2.90;;
64313;SDS011;50650;48.180;11.524;2023-06-10T11:32:22;2.92;;;2.63;;
64313;SDS011;50650;48.180;11.524;2023-06-10T11:34:51;4.15;;;2.50;;
64313;SDS011;50650;48.180;11.524;2023-06-10T11:37:18;7.22;;;2.90;;
64313;SDS011;50650;48.180;11.524;2023-06-10T11:39:45;2.95;;;2.58;;
64313;SDS011;50650;48.180;11.524;2023-06-10T11:42:11;4.28;;;3.03;;
64313;SDS011;50650;48.180;11.524;2023-06-10T11:44:38;3.03;;;2.58;;
64313;SDS011;50650;48.180;11.524;2023-06-10T11:47:05;2.83;;;2.50;;
64313;SDS011;50650;48.180;11.524;2023-06-10T11:49:33;4.20;;;2.53;;
64313;SDS011;50650;48.180;11.524;2023-06-10T11:52:00;2.47;;;2.28;;
64313;SDS011;50650;48.180;11.524;2023-06-10T11:54:26;2.70;;;2.45;;
64313;SDS011;50650;48.180;11.524;2023-06-10T11:56:57;3.20;;;2.90;;
64313;SDS011;50650;48.180;11.524;2023-06-10T11:59:26;2.67;;;2.05;;
64313;SDS011;50650;48.180;11.524;2023-06-10T12:01:53;3.33;;;2.20;;
64313;SDS011;50650;48.180;11.524;2023-06-10T12:04:19;3.15;;;2.50;;
64313;SDS011;50650;48.180;11.524;2023-06-10T12:06:48;3.00;;;2.70;;
64313;SDS011;50650;48.180;11.524;2023-06-10T12:09:19;3.40;;;2.63;;
64313;SDS011;50650;48.180;11.524;2023-06-10T12:11:48;3.45;;;3.13;;
64313;SDS011;50650;48.180;11.524;2023-06-10T12:14:15;3.28;;;2.90;;
64313;SDS011;50650;48.180;11.524;2023-06-10T12:16:47;8.85;;;2.80;;
64313;SDS011;50650;48.180;11.524;2023-06-10T12:19:14;2.60;;;2.40;;
64313;SDS011;50650;48.180;11.524;2023-06-10T12:21:41;3.58;;;2.72;;
64313;SDS011;50650;48.180;11.524;2023-06-10T12:24:09;3.25;;;2.63;;
64313;SDS011;50650;48.180;11.524;2023-06-10T12:26:36;3.60;;;2.78;;
64313;SDS011;50650;48.180;11.524;2023-06-10T12:29:17;3.58;;;2.20;;
64313;SDS011;50650;48.180;11.524;2023-06-10T12:31:52;2.55;;;2.17;;
64313;SDS011;50650;48.180;11.524;2023-06-10T12:36:47;5.63;;;2.40;;
64313;SDS011;50650;48.180;11.524;2023-06-10T12:39:15;2.40;;;2.20;;
64313;SDS011;50650;48.180;11.524;2023-06-10T12:41:46;2.65;;;2.20;;
64313;SDS011;50650;48.180;11.524;2023-06-10T12:44:13;4.20;;;2.30;;
64313;SDS011;50650;48.180;11.524;2023-06-10T12:46:40;2.60;;;2.40;;
64313;SDS011;50650;48.180;11.524;2023-06-10T12:49:06;2.63;;;2.42;;
64313;SDS011;50650;48.180;11.524;2023-06-10T12:51:33;3.97;;;2.67;;
64313;SDS011;50650;48.180;11.524;2023-06-10T12:54:00;4.38;;;2.28;;
64313;SDS011;50650;48.180;11.524;2023-06-10T12:56:28;3.25;;;2.30;;
64313;SDS011;50650;48.180;11.524;2023-06-10T12:58:55;3.42;;;2.45;;
64313;SDS011;50650;48.180;11.524;2023-06-10T13:01:21;2.42;;;2.17;;
64313;SDS011;50650;48.180;11.524;2023-06-10T13:03:48;2.88;;;2.30;;
64313;SDS011;50650;48.180;11.524;2023-06-10T13:06:14;2.80;;;2.42;;
64313;SDS011;50650;48.180;11.524;2023-06-10T13:08:41;4.07;;;3.00;;
64313;SDS011;50650;48.180;11.524;2023-06-10T13:11:07;2.90;;;2.45;;
64313;SDS011;50650;48.180;11.524;2023-06-10T13:13:37;3.97;;;2.60;;
64313;SDS011;50650;48.180;11.524;2023-06-10T13:16:04;3.40;;;2.72;;
64313;SDS011;50650;48.180;11.524;2023-06-10T13:18:32;3.17;;;2.88;;
64313;SDS011;50650;48.180;11.524;2023-06-10T13:21:02;3.30;;;3.00;;
64313;SDS011;50650;48.180;11.524;2023-06-10T13:23:28;4.22;;;2.95;;
64313;SDS011;50650;48.180;11.524;2023-06-10T13:25:56;4.18;;;3.03;;
64313;SDS011;50650;48.180;11.524;2023-06-10T13:28:22;5.30;;;2.90;;
64313;SDS011;50650;48.180;11.524;2023-06-10T13:30:50;3.10;;;2.63;;
64313;SDS011;50650;48.180;11.524;2023-06-10T13:33:16;3.03;;;2.72;;
64313;SDS011;50650;48.180;11.524;2023-06-10T13:35:43;3.17;;;2.80;;
64313;SDS011;50650;48.180;11.524;2023-06-10T13:38:09;3.67;;;2.90;;
64313;SDS011;50650;48.180;11.524;2023-06-10T13:40:36;3.22;;;2.58;;
64313;SDS011;50650;48.180;11.524;2023-06-10T13:43:02;6.45;;;2.90;;
64313;SDS011;50650;48.180;11.524;2023-06-10T13:45:29;3.17;;;2.40;;
64313;SDS011;50650;48.180;11.524;2023-06-10T13:47:57;3.72;;;2.20;;
64313;SDS011;50650;48.180;11.524;2023-06-10T13:50:23;4.60;;;3.00;;
64313;SDS011;50650;48.180;11.524;2023-06-10T13:52:50;3.28;;;2.35;;
64313;SDS011;50650;48.180;11.524;2023-06-10T13:55:16;5.07;;;2.58;;
64313;SDS011;50650;48.180;11.524;2023-06-10T13:57:44;2.58;;;2.38;;
64313;SDS011;50650;48.180;11.524;2023-06-10T14:00:10;2.95;;;2.17;;
64313;SDS011;50650;48.180;11.524;2023-06-10T14:02:37;4.65;;;2.50;;
64313;SDS011;50650;48.180;11.524;2023-06-10T14:05:06;3.20;;;2.47;;
64313;SDS011;50650;48.180;11.524;2023-06-10T14:07:33;2.50;;;2.30;;
64313;SDS011;50650;48.180;11.524;2023-06-10T14:10:00;2.67;;;2.15;;
64313;SDS011;50650;48.180;11.524;2023-06-10T14:12:26;3.45;;;2.38;;
64313;SDS011;50650;48.180;11.524;2023-06-10T14:14:53;2.50;;;2.30;;
64313;SDS011;50650;48.180;11.524;2023-06-10T14:17:19;4.72;;;2.28;;
64313;SDS011;50650;48.180;11.524;2023-06-10T14:19:48;3.22;;;2.45;;
64313;SDS011;50650;48.180;11.524;2023-06-10T14:22:16;2.88;;;2.58;;
64313;SDS011;50650;48.180;11.524;2023-06-10T14:24:42;2.58;;;2.22;;
64313;SDS011;50650;48.180;11.524;2023-06-10T14:27:08;3.40;;;2.70;;
64313;SDS011;50650;48.180;11.524;2023-06-10T14:29:35;3.22;;;2.30;;
64313;SDS011;50650;48.180;11.524;2023-06-10T14:32:01;3.28;;;2.67;;
64313;SDS011;50650;48.180;11.524;2023-06-10T14:34:28;2.92;;;2.42;;
64313;SDS011;50650;48.180;11.524;2023-06-10T14:36:58;3.00;;;2.55;;
64313;SDS011;50650;48.180;11.524;2023-06-10T14:39:26;3.90;;;2.70;;